createdAt,value
2017-11-28T00:00:43.023Z,69.9
2017-11-28T00:01:45.325Z,70.1
2017-11-28T00:02:46.591Z,70.4
2017-11-28T00:03:47.930Z,70.5
2017-11-28T00:04:49.228Z,70.3
2017-11-28T00:05:50.587Z,70.2
2017-11-28T00:06:51.852Z,70.1
2017-11-28T00:07:54.560Z,70.1
2017-11-28T00:08:55.939Z,70
2017-11-28T00:09:57.317Z,69.9
2017-11-28T00:10:58.732Z,69.5
2017-11-28T00:12:00.011Z,69.2
2017-11-28T00:13:01.237Z,69
2017-11-28T00:14:02.532Z,68.7
2017-11-28T00:15:03.912Z,68.4
2017-11-28T00:16:05.282Z,68.8
2017-11-28T00:17:06.611Z,68.8
2017-11-28T00:18:09.922Z,68.8
2017-11-28T00:19:11.252Z,68.9
2017-11-28T00:20:12.480Z,68.7
2017-11-28T00:21:13.856Z,68.8
2017-11-28T00:22:15.906Z,68.8
2017-11-28T00:23:17.346Z,68.8
2017-11-28T00:24:18.661Z,68.7
2017-11-28T00:25:20.040Z,68.8
2017-11-28T00:26:21.810Z,68.5
2017-11-28T00:27:23.230Z,68.7
2017-11-28T00:28:25.914Z,68.6
2017-11-28T00:29:27.597Z,68.6
2017-11-28T00:30:28.996Z,68.9
2017-11-28T00:31:31.013Z,68.6
2017-11-28T00:32:32.332Z,68.8
2017-11-28T00:33:33.607Z,68.9
2017-11-28T00:34:34.941Z,68.8
2017-11-28T00:35:36.241Z,69.2
2017-11-28T00:36:37.644Z,69.3
2017-11-28T00:37:39.055Z,69.2
2017-11-28T00:38:41.651Z,69.4
2017-11-28T00:39:43.056Z,69.4
2017-11-28T00:40:44.379Z,69.4
2017-11-28T00:41:45.660Z,69.3
2017-11-28T00:42:46.887Z,69.3
2017-11-28T00:43:48.286Z,69.5
2017-11-28T00:44:49.624Z,69.4
2017-11-28T00:45:50.959Z,69.5
2017-11-28T00:46:52.266Z,69.7
2017-11-28T00:47:53.565Z,69.5
2017-11-28T00:48:56.844Z,69.7
2017-11-28T00:49:58.230Z,69.7
2017-11-28T00:50:59.579Z,69.3
2017-11-28T00:52:00.842Z,69.5
2017-11-28T00:53:02.172Z,69.3
2017-11-28T00:54:03.560Z,69.3
2017-11-28T00:55:04.943Z,69.3
2017-11-28T00:56:06.276Z,69.2
2017-11-28T00:57:07.571Z,69.2
2017-11-28T00:58:08.968Z,69.3
2017-11-28T00:59:11.556Z,69.5
2017-11-28T01:00:13.296Z,69.3
2017-11-28T01:01:14.733Z,69.3
2017-11-28T01:02:15.993Z,69.5
2017-11-28T01:03:17.240Z,69.6
2017-11-28T01:04:18.582Z,69.5
2017-11-28T01:05:20.147Z,69.7
2017-11-28T01:06:21.408Z,69.7
2017-11-28T01:07:22.682Z,69.7
2017-11-28T01:08:24.026Z,69.6
2017-11-28T01:09:26.716Z,69.6
2017-11-28T01:10:27.981Z,69.6
2017-11-28T01:11:29.309Z,69.5
2017-11-28T01:12:30.598Z,69.6
2017-11-28T01:13:32.016Z,69.5
2017-11-28T01:14:33.342Z,69.5
2017-11-28T01:15:34.721Z,69.4
2017-11-28T01:16:35.992Z,69.5
2017-11-28T01:17:37.315Z,69.3
2017-11-28T01:18:38.653Z,69.3
2017-11-28T01:19:41.529Z,69.5
2017-11-28T01:20:43.936Z,69.5
2017-11-28T01:21:45.181Z,69.6
2017-11-28T01:22:46.463Z,69.6
2017-11-28T01:23:47.818Z,70.3
2017-11-28T01:24:49.127Z,69.7
2017-11-28T01:25:50.183Z,69.7
2017-11-28T01:26:51.508Z,69.7
2017-11-28T01:27:52.803Z,69.8
2017-11-28T01:28:54.164Z,69.9
2017-11-28T01:29:56.864Z,69.9
2017-11-28T01:30:58.225Z,70.1
2017-11-28T01:31:59.600Z,70.4
2017-11-28T01:33:00.897Z,70.6
2017-11-28T01:34:02.243Z,70.4
2017-11-28T01:35:03.637Z,70.5
2017-11-28T01:36:04.915Z,70.7
2017-11-28T01:37:06.009Z,70.5
2017-11-28T01:38:07.330Z,70.5
2017-11-28T01:39:08.680Z,71.5
2017-11-28T01:40:11.910Z,70.5
2017-11-28T01:41:13.335Z,70.3
2017-11-28T01:42:14.635Z,70.1
2017-11-28T01:43:16.012Z,69.9
2017-11-28T01:44:17.314Z,71.5
2017-11-28T01:45:19.580Z,70.7
2017-11-28T01:46:20.955Z,70.7
2017-11-28T01:47:22.212Z,71.1
2017-11-28T01:48:23.537Z,70.9
2017-11-28T01:49:24.718Z,70.5
2017-11-28T01:50:28.216Z,70.5
2017-11-28T01:51:29.571Z,70.3
2017-11-28T01:52:30.869Z,69.6
2017-11-28T01:53:32.195Z,70.9
2017-11-28T01:54:33.421Z,69.6
2017-11-28T01:55:34.729Z,69.5
2017-11-28T01:56:36.125Z,69.2
2017-11-28T01:57:37.416Z,68.9
2017-11-28T01:58:38.756Z,69.2
2017-11-28T01:59:40.056Z,69
2017-11-28T02:00:42.847Z,69
2017-11-28T02:01:45.293Z,68.9
2017-11-28T02:02:46.605Z,68.9
2017-11-28T02:03:48.457Z,68.6
2017-11-28T02:04:49.796Z,69
2017-11-28T02:05:51.185Z,69
2017-11-28T02:06:52.585Z,69.5
2017-11-28T02:07:53.898Z,69.3
2017-11-28T02:08:55.742Z,69.5
2017-11-28T02:09:57.150Z,68.9
2017-11-28T02:10:59.695Z,69.3
2017-11-28T02:12:00.949Z,69.2
2017-11-28T02:13:02.273Z,69.3
2017-11-28T02:14:03.634Z,69.5
2017-11-28T02:15:05.011Z,70
2017-11-28T02:16:07.035Z,70.1
2017-11-28T02:17:08.375Z,70.2
2017-11-28T02:18:09.695Z,70.3
2017-11-28T02:19:11.037Z,70.4
2017-11-28T02:20:12.387Z,70.6
2017-11-28T02:21:15.057Z,71
2017-11-28T02:22:16.392Z,70.9
2017-11-28T02:23:17.776Z,71.3
2017-11-28T02:24:19.082Z,71.2
2017-11-28T02:25:20.417Z,71
2017-11-28T02:26:21.785Z,71.2
2017-11-28T02:27:23.061Z,71.8
2017-11-28T02:28:24.475Z,71.6
2017-11-28T02:29:25.757Z,72.1
2017-11-28T02:30:27.000Z,72.2
2017-11-28T02:31:29.786Z,72.6
2017-11-28T02:32:31.328Z,73
2017-11-28T02:33:32.678Z,72
2017-11-28T02:34:33.988Z,71.8
2017-11-28T02:35:35.267Z,71.6
2017-11-28T02:36:36.608Z,71.2
2017-11-28T02:37:38.068Z,70.8
2017-11-28T02:38:39.417Z,70.9
2017-11-28T02:39:40.732Z,70.7
2017-11-28T02:40:42.036Z,70.6
2017-11-28T02:41:44.801Z,70.7
2017-11-28T02:42:46.244Z,70.9
2017-11-28T02:43:47.570Z,70.9
2017-11-28T02:44:48.865Z,70.7
2017-11-28T02:45:50.300Z,70.7
2017-11-28T02:46:51.650Z,70.7
2017-11-28T02:47:53.409Z,70.6
2017-11-28T02:48:55.412Z,70.9
2017-11-28T02:49:56.756Z,70.7
2017-11-28T02:50:57.994Z,70.6
2017-11-28T02:52:00.745Z,70.4
2017-11-28T02:53:02.198Z,70.3
2017-11-28T02:54:03.553Z,70.7
2017-11-28T02:55:04.703Z,71
2017-11-28T02:56:06.039Z,71
2017-11-28T02:57:07.370Z,71
2017-11-28T02:58:08.744Z,71
2017-11-28T02:59:09.951Z,70.4
2017-11-28T03:00:11.317Z,70.4
2017-11-28T03:01:12.638Z,70.3
2017-11-28T03:02:15.351Z,70.3
2017-11-28T03:03:16.719Z,70.5
2017-11-28T03:04:18.017Z,70.1
2017-11-28T03:05:19.286Z,70
2017-11-28T03:06:20.623Z,70.1
2017-11-28T03:07:21.893Z,70.2
2017-11-28T03:08:23.514Z,70.2
2017-11-28T03:09:24.904Z,69.9
2017-11-28T03:10:26.251Z,70
2017-11-28T03:11:27.537Z,70
2017-11-28T03:12:30.201Z,70
2017-11-28T03:13:31.795Z,70.1
2017-11-28T03:14:33.076Z,70.3
2017-11-28T03:15:34.341Z,70.4
2017-11-28T03:16:35.724Z,70.8
2017-11-28T03:17:37.100Z,70.1
2017-11-28T03:18:38.531Z,70.4
2017-11-28T03:19:39.828Z,70.6
2017-11-28T03:20:41.068Z,70.7
2017-11-28T03:21:42.385Z,70.9
2017-11-28T03:22:45.663Z,71
2017-11-28T03:23:47.040Z,71
2017-11-28T03:24:48.378Z,71
2017-11-28T03:25:49.833Z,71
2017-11-28T03:26:51.096Z,70.9
2017-11-28T03:27:52.397Z,71.2
2017-11-28T03:28:54.067Z,71
2017-11-28T03:29:55.751Z,70.9
2017-11-28T03:30:57.061Z,70.9
2017-11-28T03:31:58.396Z,71
2017-11-28T03:33:01.037Z,71
2017-11-28T03:34:02.400Z,70.9
2017-11-28T03:35:03.784Z,71.2
2017-11-28T03:36:05.073Z,71.1
2017-11-28T03:37:06.386Z,71.3
2017-11-28T03:38:07.745Z,71.4
2017-11-28T03:39:09.173Z,71.5
2017-11-28T03:40:10.474Z,71.5
2017-11-28T03:41:11.804Z,71.6
2017-11-28T03:42:13.103Z,71.6
2017-11-28T03:43:15.712Z,71.7
2017-11-28T03:44:17.339Z,71.6
2017-11-28T03:45:18.595Z,71.5
2017-11-28T03:46:20.013Z,71.7
2017-11-28T03:47:21.410Z,71.8
2017-11-28T03:48:22.776Z,71.8
2017-11-28T03:49:24.392Z,71.9
2017-11-28T03:50:25.839Z,71.8
2017-11-28T03:51:27.214Z,72.3
2017-11-28T03:52:28.546Z,71.9
2017-11-28T03:53:31.212Z,72
2017-11-28T03:54:32.517Z,71.8
2017-11-28T03:55:33.853Z,71.7
2017-11-28T03:56:35.109Z,71.5
2017-11-28T03:57:36.462Z,71.7
2017-11-28T03:58:37.852Z,71.5
2017-11-28T03:59:39.428Z,71.5
2017-11-28T04:00:40.718Z,72.2
2017-11-28T04:01:42.095Z,72.2
2017-11-28T04:02:43.389Z,71.3
2017-11-28T04:03:46.304Z,71.3
2017-11-28T04:04:47.712Z,71.4
2017-11-28T04:05:49.121Z,71.6
2017-11-28T04:06:50.565Z,71.2
2017-11-28T04:07:51.711Z,71
2017-11-28T04:08:53.067Z,70.7
2017-11-28T04:09:54.383Z,70.6
2017-11-28T04:10:55.704Z,70.5
2017-11-28T04:11:57.808Z,70.1
2017-11-28T04:12:59.189Z,70.6
2017-11-28T04:14:01.830Z,70.8
2017-11-28T04:15:03.207Z,70.9
2017-11-28T04:16:04.735Z,70.6
2017-11-28T04:17:06.178Z,70.6
2017-11-28T04:18:07.594Z,70.6
2017-11-28T04:19:09.010Z,71.5
2017-11-28T04:20:10.663Z,70.6
2017-11-28T04:21:11.933Z,70.5
2017-11-28T04:22:13.185Z,70.6
2017-11-28T04:23:14.469Z,71.5
2017-11-28T04:24:17.154Z,70.8
2017-11-28T04:25:20.252Z,71
2017-11-28T04:26:21.543Z,70.5
2017-11-28T04:27:22.938Z,70.4
2017-11-28T04:28:25.481Z,70.7
2017-11-28T04:29:27.336Z,70.8
2017-11-28T04:30:28.806Z,70.8
2017-11-28T04:31:30.122Z,71
2017-11-28T04:32:32.010Z,71.2
2017-11-28T04:33:33.442Z,71.1
2017-11-28T04:34:37.369Z,71.3
2017-11-28T04:35:38.850Z,70.9
2017-11-28T04:36:40.716Z,71.3
2017-11-28T04:37:42.119Z,71.5
2017-11-28T04:38:43.479Z,71.8
2017-11-28T04:39:45.995Z,71.7
2017-11-28T04:40:47.274Z,71.4
2017-11-28T04:41:48.531Z,71.4
2017-11-28T04:42:49.555Z,71.6
2017-11-28T04:43:50.983Z,71.2
2017-11-28T04:44:55.707Z,71.6
2017-11-28T04:45:57.345Z,71.8
2017-11-28T04:46:58.640Z,71.8
2017-11-28T04:48:00.945Z,71.7
2017-11-28T04:49:02.359Z,71.8
2017-11-28T04:50:04.973Z,72.1
2017-11-28T04:51:06.958Z,72
2017-11-28T04:52:08.250Z,72.1
2017-11-28T04:53:09.371Z,72.2
2017-11-28T04:54:10.689Z,72.4
2017-11-28T04:55:13.444Z,72.6
2017-11-28T04:56:15.509Z,72.5
2017-11-28T04:57:16.883Z,72.5
2017-11-28T04:58:19.473Z,72.4
2017-11-28T04:59:21.409Z,72.5
2017-11-28T05:00:23.093Z,73.3
2017-11-28T05:01:24.437Z,71.9
2017-11-28T05:02:27.094Z,72.6
2017-11-28T05:03:29.009Z,72.8
2017-11-28T05:04:30.337Z,72.6
2017-11-28T05:05:34.497Z,72.6
2017-11-28T05:06:36.904Z,73.2
2017-11-28T05:07:38.784Z,73
2017-11-28T05:08:39.866Z,73.2
2017-11-28T05:09:41.207Z,72.6
2017-11-28T05:10:43.510Z,72.4
2017-11-28T05:11:45.003Z,72.5
2017-11-28T05:12:46.348Z,72.8
2017-11-28T05:13:47.755Z,72.5
2017-11-28T05:14:49.543Z,72.2
2017-11-28T05:15:53.252Z,72.4
2017-11-28T05:16:54.563Z,72.5
2017-11-28T05:17:55.762Z,72.2
2017-11-28T05:18:58.005Z,72.5
2017-11-28T05:19:59.266Z,72.7
2017-11-28T05:21:01.536Z,72.9
2017-11-28T05:22:05.608Z,72.8
2017-11-28T05:23:06.917Z,72.7
2017-11-28T05:24:08.266Z,72.7
2017-11-28T05:25:09.595Z,72.7
2017-11-28T05:26:12.395Z,73.2
2017-11-28T05:27:14.663Z,72.8
2017-11-28T05:28:15.813Z,72.6
2017-11-28T05:29:17.883Z,72.7
2017-11-28T05:30:20.004Z,73.1
2017-11-28T05:31:21.285Z,73.3
2017-11-28T05:32:22.634Z,73
2017-11-28T05:33:23.960Z,73.1
2017-11-28T05:34:25.337Z,73.2
2017-11-28T05:35:27.435Z,73.3
2017-11-28T05:36:30.157Z,73.3
2017-11-28T05:37:32.482Z,72.8
2017-11-28T05:38:33.885Z,72.9
2017-11-28T05:39:35.421Z,73
2017-11-28T05:40:36.840Z,73.3
2017-11-28T05:41:38.126Z,73.2
2017-11-28T05:42:40.094Z,72.7
2017-11-28T05:43:41.394Z,72.8
2017-11-28T05:44:43.449Z,72.9
2017-11-28T05:45:44.804Z,72.9
2017-11-28T05:46:47.985Z,73
2017-11-28T05:47:49.384Z,72.9
2017-11-28T05:48:50.519Z,73.1
2017-11-28T05:49:51.880Z,73.1
2017-11-28T05:50:53.830Z,73.1
2017-11-28T05:51:56.424Z,73.2
2017-11-28T05:52:57.866Z,73.4
2017-11-28T05:54:00.217Z,73.4
2017-11-28T05:55:01.567Z,73.4
2017-11-28T05:56:03.453Z,73.3
2017-11-28T05:57:06.225Z,73.2
2017-11-28T05:58:08.014Z,73.3
2017-11-28T05:59:10.407Z,73.3
2017-11-28T06:00:12.417Z,73.2
2017-11-28T06:01:14.752Z,73
2017-11-28T06:02:16.112Z,73
2017-11-28T06:03:18.051Z,73.4
2017-11-28T06:04:20.449Z,73
2017-11-28T06:05:21.607Z,73
2017-11-28T06:06:22.989Z,73.1
2017-11-28T06:07:25.736Z,73.8
2017-11-28T06:08:27.092Z,73.7
2017-11-28T06:09:28.368Z,73.3
2017-11-28T06:10:29.690Z,73.3
2017-11-28T06:11:31.105Z,73.3
2017-11-28T06:12:32.373Z,73.3
2017-11-28T06:13:33.767Z,73.4
2017-11-28T06:14:35.135Z,73.4
2017-11-28T06:15:36.392Z,73.4
2017-11-28T06:16:37.614Z,73.5
2017-11-28T06:17:40.366Z,73.7
2017-11-28T06:18:41.743Z,73.6
2017-11-28T06:19:43.090Z,74.2
2017-11-28T06:20:44.361Z,73.3
2017-11-28T06:21:46.167Z,73.3
2017-11-28T06:22:47.526Z,73.4
2017-11-28T06:23:48.989Z,73.5
2017-11-28T06:24:50.403Z,74.2
2017-11-28T06:25:51.643Z,74.6
2017-11-28T06:26:53.098Z,73.5
2017-11-28T06:27:55.888Z,73.6
2017-11-28T06:28:57.460Z,73.7
2017-11-28T06:29:58.813Z,73.6
2017-11-28T06:31:00.163Z,73.8
2017-11-28T06:32:01.657Z,74
2017-11-28T06:33:03.146Z,73.9
2017-11-28T06:34:04.822Z,74.3
2017-11-28T06:35:06.115Z,73.5
2017-11-28T06:36:07.518Z,73.5
2017-11-28T06:37:08.961Z,73.3
2017-11-28T06:38:11.786Z,73.4
2017-11-28T06:39:13.181Z,73.5
2017-11-28T06:40:15.230Z,73.7
2017-11-28T06:41:16.531Z,73.4
2017-11-28T06:42:18.051Z,73.4
2017-11-28T06:43:19.509Z,73.5
2017-11-28T06:44:20.824Z,73.5
2017-11-28T06:45:22.394Z,73.6
2017-11-28T06:46:23.675Z,73.6
2017-11-28T06:47:26.455Z,73.9
2017-11-28T06:48:30.111Z,74
2017-11-28T06:49:31.672Z,74
2017-11-28T06:50:33.002Z,73.9
2017-11-28T06:51:34.274Z,73.8
2017-11-28T06:52:35.583Z,73.8
2017-11-28T06:53:37.997Z,74.1
2017-11-28T06:54:39.924Z,74.1
2017-11-28T06:55:41.269Z,74.3
2017-11-28T06:56:43.149Z,74.6
2017-11-28T06:57:45.473Z,74.8
2017-11-28T06:58:48.196Z,74.7
2017-11-28T06:59:49.557Z,74.6
2017-11-28T07:00:50.893Z,74.6
2017-11-28T07:01:52.286Z,74.8
2017-11-28T07:02:53.546Z,75
2017-11-28T07:03:54.894Z,75
2017-11-28T07:04:56.872Z,74.8
2017-11-28T07:05:58.139Z,74.6
2017-11-28T07:07:00.024Z,74.3
2017-11-28T07:08:01.390Z,74.7
2017-11-28T07:09:04.736Z,74.8
2017-11-28T07:10:06.060Z,74.9
2017-11-28T07:11:07.403Z,75.1
2017-11-28T07:12:08.820Z,75.7
2017-11-28T07:13:10.241Z,75.8
2017-11-28T07:14:11.460Z,75.4
2017-11-28T07:15:12.761Z,75.4
2017-11-28T07:16:14.013Z,75.2
2017-11-28T07:17:15.376Z,75.1
2017-11-28T07:18:17.420Z,75.1
2017-11-28T07:19:20.681Z,75.2
2017-11-28T07:20:22.056Z,75.2
2017-11-28T07:21:23.346Z,75.3
2017-11-28T07:22:24.661Z,75.3
2017-11-28T07:23:26.049Z,75.3
2017-11-28T07:24:27.398Z,75.4
2017-11-28T07:25:29.296Z,75.3
2017-11-28T07:26:30.732Z,75.3
2017-11-28T07:27:32.633Z,75.1
2017-11-28T07:28:34.786Z,75.1
2017-11-28T07:29:37.287Z,75.3
2017-11-28T07:30:39.620Z,75.4
2017-11-28T07:31:41.008Z,75.3
2017-11-28T07:32:42.272Z,75.3
2017-11-28T07:33:45.311Z,75.1
2017-11-28T07:34:46.613Z,76.1
2017-11-28T07:35:48.656Z,75.2
2017-11-28T07:36:50.611Z,75.4
2017-11-28T07:37:52.624Z,75.2
2017-11-28T07:38:55.264Z,75.2
2017-11-28T07:39:58.710Z,75.3
2017-11-28T07:41:00.036Z,75.3
2017-11-28T07:42:01.338Z,75.2
2017-11-28T07:43:02.690Z,75.3
2017-11-28T07:44:03.980Z,75.1
2017-11-28T07:45:06.607Z,75.2
2017-11-28T07:46:07.953Z,75.1
2017-11-28T07:47:09.325Z,75.2
2017-11-28T07:48:11.961Z,75.1
2017-11-28T07:49:13.271Z,75
2017-11-28T07:50:16.491Z,75.2
2017-11-28T07:51:18.738Z,75.2
2017-11-28T07:52:20.808Z,75
2017-11-28T19:19:28.496Z,80.6
2017-11-28T19:20:32.623Z,81
2017-11-28T19:21:33.983Z,81
2017-11-28T19:22:35.470Z,80.6
2017-11-28T19:23:36.898Z,80.5
2017-11-28T19:24:38.988Z,80.5
2017-11-28T19:25:40.452Z,80.4
2017-11-28T19:26:41.833Z,80.6
2017-11-28T19:27:43.131Z,80.9
2017-11-28T19:28:44.991Z,80.5
2017-11-28T19:29:46.416Z,80.8
2017-11-28T19:30:49.833Z,81
2017-11-28T19:33:26.658Z,81.2
2017-11-28T19:34:28.032Z,81.1
2017-11-28T19:35:29.477Z,81.3
2017-11-28T19:36:30.836Z,81
2017-11-28T19:37:32.247Z,80.7
2017-11-28T19:38:33.632Z,80.9
2017-11-28T19:39:40.098Z,81
2017-11-28T19:40:45.168Z,81
2017-11-28T19:41:48.412Z,81
2017-11-28T19:42:51.754Z,81.1
2017-11-28T19:43:55.449Z,81
2017-11-28T19:44:57.413Z,81
2017-11-28T19:46:03.339Z,80.9
2017-11-28T19:47:04.732Z,80.8
2017-11-28T19:48:06.694Z,80.7
2017-11-28T19:49:13.156Z,80.6
2017-11-28T19:50:15.697Z,80.6
2017-11-28T19:51:18.436Z,80.4
2017-11-28T19:52:22.172Z,80.5
2017-11-28T19:53:30.101Z,80.4
2017-11-28T19:54:32.836Z,80.3
2017-11-28T19:55:36.972Z,80.1
2017-11-28T19:56:41.893Z,81
2017-11-28T19:57:43.113Z,80.4
2017-11-28T19:58:46.343Z,80.4
2017-11-28T19:59:49.120Z,80.6
2017-11-28T20:00:51.651Z,80.7
2017-11-28T20:01:57.190Z,80.9
2017-11-28T20:03:00.080Z,80.9
2017-11-28T20:04:07.140Z,81.6
2017-11-28T20:05:12.936Z,81.1
2017-11-28T20:06:15.051Z,81.1
2017-11-28T20:07:16.479Z,81.1
2017-11-28T20:08:19.708Z,81.1
2017-11-28T20:09:24.790Z,81.2
2017-11-28T20:10:27.314Z,81.2
2017-11-28T20:11:31.615Z,81.3
2017-11-28T20:12:33.496Z,81.2
2017-11-28T20:13:38.092Z,80.9
2017-11-28T20:14:44.384Z,81
2017-11-28T20:15:48.748Z,80.8
2017-11-28T20:16:51.994Z,80.9
2017-11-28T20:17:55.488Z,80.9
2017-11-28T20:18:59.793Z,81
2017-11-28T20:20:03.838Z,81
2017-11-28T20:21:07.248Z,81
2017-11-28T20:22:10.343Z,81
2017-11-28T20:23:17.556Z,81.1
2017-11-28T20:24:18.753Z,81.1
2017-11-28T20:25:25.385Z,80.7
2017-11-28T20:26:27.290Z,80.9
2017-11-28T20:27:30.804Z,80.7
2017-11-28T20:28:37.276Z,81
2017-11-28T20:29:39.534Z,80.9
2017-11-28T20:30:40.720Z,80.9
2017-11-28T20:31:43.408Z,80.8
2017-11-28T20:32:47.819Z,80.6
2017-11-28T20:33:50.537Z,80.5
2017-11-28T20:34:57.504Z,80.2
2017-11-28T20:36:01.951Z,80.4
2017-11-28T20:37:03.548Z,80.5
2017-11-28T20:38:05.501Z,80.9
2017-11-28T20:39:10.400Z,80.7
2017-11-28T20:40:13.410Z,80.6
2017-11-28T20:41:16.898Z,80.7
2017-11-28T20:42:18.465Z,80.6
2017-11-28T20:43:23.544Z,80.7
2017-11-28T20:44:27.361Z,80.6
2017-11-28T20:45:31.213Z,80.5
2017-11-28T20:46:35.159Z,80.9
2017-11-28T20:47:38.655Z,80.6
2017-11-28T20:48:42.612Z,81.4
2017-11-28T20:49:45.321Z,80.6
2017-11-28T20:50:48.393Z,80.7
2017-11-28T20:51:49.789Z,80.5
2017-11-28T20:52:51.136Z,80.6
2017-11-28T20:53:52.588Z,80.8
2017-11-28T20:54:53.925Z,80.7
2017-11-28T20:55:55.336Z,80.7
2017-11-28T20:56:58.954Z,81
2017-11-28T20:58:00.496Z,81.2
2017-11-28T20:59:01.936Z,81.2
2017-11-28T21:00:03.393Z,81.4
2017-11-28T21:01:05.229Z,81.5
2017-11-28T21:02:06.617Z,81.4
2017-11-28T21:03:08.076Z,81.5
2017-11-28T21:04:10.369Z,81.4
2017-11-28T21:05:11.753Z,81.6
2017-11-28T21:06:13.189Z,81.6
2017-11-28T21:07:17.147Z,81.8
2017-11-28T21:08:18.564Z,81.5
2017-11-28T21:09:20.034Z,82.3
2017-11-28T21:10:21.417Z,81.5
2017-11-28T21:11:22.844Z,81.5
2017-11-28T21:12:24.191Z,81.6
2017-11-28T21:13:25.590Z,81.4
2017-11-28T21:14:26.957Z,81.6
2017-11-28T21:15:28.381Z,82.1
2017-11-28T21:16:30.506Z,81.8
2017-11-28T21:17:33.298Z,81.6
2017-11-28T21:18:34.636Z,81.5
2017-11-28T21:19:36.095Z,81.5
2017-11-28T21:20:37.484Z,81.3
2017-11-28T21:21:38.851Z,80.9
2017-11-28T21:22:40.170Z,81.1
2017-11-28T21:23:41.464Z,81.2
2017-11-28T21:24:43.705Z,81.1
2017-11-28T21:25:45.089Z,81
2017-11-28T21:26:47.220Z,81
2017-11-28T21:27:49.874Z,81.2
2017-11-28T21:28:53.974Z,81.6
2017-11-28T21:29:55.303Z,81.9
2017-11-28T21:30:56.642Z,81.7
2017-11-28T21:31:58.058Z,81.5
2017-11-28T21:32:59.464Z,81.5
2017-11-28T21:34:00.817Z,81.4
2017-11-28T21:35:02.153Z,81.2
2017-11-28T21:36:04.108Z,81.2
2017-11-28T21:37:06.156Z,81
2017-11-28T21:38:11.355Z,81
2017-11-28T21:39:13.545Z,81.2
2017-11-28T21:40:14.966Z,81.1
2017-11-28T21:41:17.054Z,80.4
2017-11-28T21:42:19.852Z,81
2017-11-28T21:43:21.712Z,80.9
2017-11-28T21:44:23.827Z,81.2
2017-11-28T21:45:25.798Z,81.2
2017-11-28T21:46:27.037Z,81.1
2017-11-28T21:47:29.055Z,81.1
2017-11-28T21:48:34.025Z,80.9
2017-11-28T21:49:35.987Z,80.9
2017-11-28T21:50:37.856Z,81
2017-11-28T21:51:39.993Z,81.6
2017-11-28T21:52:42.791Z,80.8
2017-11-28T21:53:47.810Z,80.9
2017-11-28T21:54:49.729Z,80.8
2017-11-28T21:55:51.850Z,80.9
2017-11-28T21:56:54.437Z,81.8
2017-11-28T21:57:57.348Z,81.3
2017-11-28T21:59:05.868Z,81.1
2017-11-28T22:00:07.832Z,81
2017-11-28T22:01:11.100Z,80.9
2017-11-28T22:02:15.157Z,81.6
2017-11-28T22:03:18.480Z,81
2017-11-28T22:04:22.140Z,80.8
2017-11-28T22:05:25.833Z,80.6
2017-11-28T22:06:28.596Z,80.8
2017-11-28T22:07:32.910Z,81
2017-11-28T22:08:37.054Z,80.8
2017-11-28T22:09:41.898Z,81
2017-11-28T22:10:43.690Z,81.2
2017-11-28T22:11:45.845Z,81.2
2017-11-28T22:12:51.105Z,81.4
2017-11-28T22:13:54.595Z,80.9
2017-11-28T22:14:57.263Z,81
2017-11-28T22:16:02.178Z,81.3
2017-11-28T22:17:04.839Z,81.4
2017-11-28T22:18:07.409Z,81.5
2017-11-28T22:19:09.384Z,81.6
2017-11-28T22:20:17.077Z,81.8
2017-11-28T22:21:19.870Z,81.8
2017-11-28T22:22:21.567Z,82
2017-11-28T22:23:24.592Z,82
2017-11-28T22:24:27.823Z,82.2
2017-11-28T22:25:30.668Z,82.4
2017-11-28T22:26:33.324Z,82.7
2017-11-28T22:27:38.163Z,83.4
2017-11-28T22:28:40.968Z,82.7
2017-11-28T22:29:43.719Z,83
2017-11-28T22:30:48.896Z,83
2017-11-28T22:31:52.383Z,82.7
2017-11-28T22:32:57.508Z,82.8
2017-11-28T22:34:01.720Z,82.9
2017-11-28T22:35:05.201Z,83
2017-11-28T22:36:09.830Z,83
2017-11-28T22:37:14.007Z,83
2017-11-28T22:38:16.437Z,83.2
2017-11-28T22:39:21.068Z,83.3
2017-11-28T22:40:24.543Z,83.2
2017-11-28T22:41:29.897Z,83.1
2017-11-28T22:42:31.666Z,83
2017-11-28T22:43:35.994Z,82.9
2017-11-28T22:44:40.147Z,83.1
2017-11-28T22:45:43.649Z,82.8
2017-11-28T22:46:47.009Z,82.9
2017-11-28T22:47:49.642Z,82.9
2017-11-28T22:48:52.288Z,83.5
2017-11-28T22:49:55.580Z,82.6
2017-11-28T22:50:59.570Z,82.6
2017-11-28T22:52:07.637Z,82.5
2017-11-28T22:53:08.790Z,82.4
2017-11-28T22:54:13.765Z,82.3
2017-11-28T22:55:16.797Z,82.2
2017-11-28T22:56:20.157Z,81.9
2017-11-28T22:57:24.480Z,81.8
2017-11-28T22:58:28.533Z,81.7
2017-11-28T22:59:32.361Z,80.4
2017-11-28T23:00:33.750Z,81
2017-11-28T23:01:37.938Z,81.1
2017-11-28T23:02:43.661Z,80.9
2017-11-28T23:03:45.673Z,81.1
2017-11-28T23:04:50.322Z,81.3
2017-11-28T23:05:53.502Z,81.4
2017-11-28T23:06:58.210Z,80.9
2017-11-28T23:08:00.785Z,80.7
2017-11-28T23:09:04.150Z,80.6
2017-11-28T23:10:08.632Z,80.6
2017-11-28T23:11:11.475Z,80.7
2017-11-28T23:12:16.557Z,81.2
2017-11-28T23:13:19.863Z,81.2
2017-11-28T23:14:21.427Z,80.7
2017-11-28T23:15:27.312Z,81
2017-11-28T23:16:29.415Z,81.1
2017-11-28T23:17:31.955Z,81
2017-11-28T23:18:35.270Z,81.1
2017-11-28T23:19:39.363Z,81.2
2017-11-28T23:20:42.403Z,80.9
2017-11-28T23:21:45.713Z,80.9
2017-11-28T23:22:49.729Z,81
2017-11-28T23:23:55.102Z,81
2017-11-28T23:24:56.942Z,81
2017-11-28T23:26:01.003Z,81.3
2017-11-28T23:27:04.410Z,81
2017-11-28T23:28:07.278Z,81.1
2017-11-28T23:29:11.158Z,81.1
2017-11-28T23:30:15.644Z,81.2
2017-11-28T23:31:19.009Z,81.2
2017-11-28T23:32:22.213Z,81
2017-11-28T23:33:23.536Z,81
2017-11-28T23:34:30.471Z,81
2017-11-28T23:35:32.425Z,81.1
2017-11-28T23:36:33.797Z,81.4
2017-11-28T23:37:35.178Z,81.5
2017-11-28T23:38:36.592Z,81.4
2017-11-28T23:39:37.917Z,81.4
2017-11-28T23:40:39.228Z,81.3
2017-11-28T23:41:40.669Z,81.2
2017-11-28T23:42:42.068Z,81.2
2017-11-28T23:43:43.454Z,82.2
2017-11-28T23:44:46.205Z,81.6
2017-11-28T23:45:47.641Z,81.6
2017-11-28T23:46:49.086Z,81.6
2017-11-28T23:47:50.481Z,81.9
2017-11-28T23:48:51.908Z,82.1
2017-11-28T23:49:53.253Z,81.8
2017-11-28T23:50:54.669Z,81.7
2017-11-28T23:51:56.076Z,81.6
2017-11-28T23:52:57.471Z,81.7
2017-11-28T23:53:59.534Z,81.6
2017-11-28T23:55:03.263Z,81.6
2017-11-28T23:56:04.610Z,81.5
2017-11-28T23:57:06.192Z,81.6
2017-11-28T23:58:08.128Z,81.5
2017-11-28T23:59:09.531Z,82.3
